createdAt,value
2018-08-14T00:01:33.551Z,17.17
2018-08-14T00:04:01.665Z,17.37
2018-08-14T00:06:29.752Z,16.47
2018-08-14T00:08:57.916Z,16.13
2018-08-14T00:11:26.044Z,16.90
2018-08-14T00:13:54.133Z,16.80
2018-08-14T00:16:22.216Z,16.73
2018-08-14T00:18:50.297Z,15.47
2018-08-14T00:21:18.400Z,15.33
2018-08-14T00:23:46.489Z,13.93
2018-08-14T00:26:14.603Z,14.17
2018-08-14T00:28:42.700Z,15.37
2018-08-14T00:31:10.789Z,13.97
2018-08-14T00:33:38.948Z,12.97
2018-08-14T00:36:07.317Z,14.20
2018-08-14T00:38:35.396Z,12.17
2018-08-14T00:41:03.465Z,13.47
2018-08-14T00:43:31.571Z,12.13
2018-08-14T00:45:59.716Z,11.97
2018-08-14T00:48:27.811Z,14.40
2018-08-14T00:50:55.963Z,12.80
2018-08-14T00:53:24.016Z,11.87
2018-08-14T00:55:52.090Z,14.30
2018-08-14T00:58:20.266Z,13.40
2018-08-14T01:00:48.331Z,12.37
2018-08-14T01:03:16.495Z,13.57
2018-08-14T01:05:44.559Z,13.23
2018-08-14T01:08:12.647Z,12.10
2018-08-14T01:10:40.760Z,13.00
2018-08-14T01:13:08.940Z,13.60
2018-08-14T01:15:37.412Z,11.70
2018-08-14T01:18:05.604Z,13.30
2018-08-14T01:20:33.716Z,12.97
2018-08-14T01:23:01.966Z,12.13
2018-08-14T01:25:31.537Z,11.33
2018-08-14T01:27:59.663Z,12.73
2018-08-14T01:30:29.000Z,11.70
2018-08-14T01:32:57.136Z,10.80
2018-08-14T01:35:25.205Z,12.30
2018-08-14T01:37:53.277Z,11.70
2018-08-14T01:40:21.382Z,13.30
2018-08-14T01:42:49.442Z,12.97
2018-08-14T01:45:17.743Z,11.43
2018-08-14T01:47:46.004Z,10.67
2018-08-14T01:50:24.316Z,10.93
2018-08-14T01:52:52.508Z,10.37
2018-08-14T01:55:21.708Z,11.00
2018-08-14T01:57:50.677Z,13.30
2018-08-14T02:00:20.279Z,12.60
2018-08-14T02:02:48.575Z,11.60
2018-08-14T02:05:16.644Z,12.20
2018-08-14T02:07:44.792Z,10.33
2018-08-14T02:10:14.690Z,9.50
2018-08-14T02:12:42.919Z,9.47
2018-08-14T02:15:13.036Z,10.60
2018-08-14T02:17:41.160Z,9.70
2018-08-14T02:20:12.489Z,11.17
2018-08-14T02:22:40.588Z,11.87
2018-08-14T02:25:08.650Z,9.80
2018-08-14T02:27:36.761Z,9.63
2018-08-14T02:30:05.717Z,12.17
2018-08-14T02:32:33.905Z,13.20
2018-08-14T02:35:02.328Z,12.53
2018-08-14T02:37:30.401Z,10.53
2018-08-14T02:39:58.497Z,10.83
2018-08-14T02:42:26.565Z,10.30
2018-08-14T02:44:54.661Z,12.40
2018-08-14T02:47:22.744Z,11.43
2018-08-14T02:49:50.828Z,9.37
2018-08-14T02:52:18.979Z,9.77
2018-08-14T02:54:47.089Z,12.17
2018-08-14T02:57:15.180Z,9.63
2018-08-14T02:59:43.278Z,10.40
2018-08-14T03:02:11.376Z,9.83
2018-08-14T03:04:39.461Z,11.03
2018-08-14T03:07:07.544Z,10.30
2018-08-14T03:09:35.640Z,11.50
2018-08-14T03:12:03.796Z,10.97
2018-08-14T03:14:31.914Z,11.90
2018-08-14T03:17:00.143Z,13.20
2018-08-14T03:19:28.284Z,12.97
2018-08-14T03:21:56.776Z,12.27
2018-08-14T03:24:24.869Z,12.93
2018-08-14T03:26:52.964Z,13.70
2018-08-14T03:29:21.049Z,13.93
2018-08-14T03:31:49.174Z,13.20
2018-08-14T03:34:17.264Z,15.90
2018-08-14T03:36:45.353Z,13.90
2018-08-14T03:39:14.064Z,14.07
2018-08-14T03:41:42.756Z,14.27
2018-08-14T03:44:10.864Z,13.80
2018-08-14T03:46:38.951Z,14.17
2018-08-14T03:49:07.176Z,15.90
2018-08-14T03:51:35.232Z,13.50
2018-08-14T03:54:03.493Z,14.83
2018-08-14T03:56:31.614Z,16.53
2018-08-14T03:58:59.788Z,14.10
2018-08-14T04:01:27.912Z,13.83
2018-08-14T04:03:56.033Z,13.60
2018-08-14T04:06:24.128Z,12.83
2018-08-14T04:08:52.212Z,12.90
2018-08-14T04:11:20.313Z,15.23
2018-08-14T04:13:48.528Z,14.00
2018-08-14T04:16:16.723Z,11.97
2018-08-14T04:18:44.902Z,13.47
2018-08-14T04:21:13.066Z,13.83
2018-08-14T04:23:41.177Z,14.37
2018-08-14T04:26:09.289Z,14.37
2018-08-14T04:28:37.377Z,12.90
2018-08-14T04:31:05.528Z,13.20
2018-08-14T04:33:33.760Z,13.03
2018-08-14T04:36:01.927Z,11.90
2018-08-14T04:38:30.109Z,14.67
2018-08-14T04:40:58.248Z,12.27
2018-08-14T04:43:26.365Z,13.30
2018-08-14T04:45:54.624Z,12.63
2018-08-14T04:48:22.556Z,14.63
2018-08-14T04:50:50.668Z,13.60
2018-08-14T04:53:18.771Z,14.33
2018-08-14T04:55:46.988Z,14.00
2018-08-14T04:58:15.077Z,14.33
2018-08-14T05:00:43.162Z,13.43
2018-08-14T05:03:11.258Z,12.87
2018-08-14T05:05:39.352Z,12.83
2018-08-14T05:08:07.593Z,12.77
2018-08-14T05:10:35.675Z,13.87
2018-08-14T05:13:03.825Z,11.60
2018-08-14T05:15:32.168Z,13.27
2018-08-14T05:18:00.295Z,12.10
2018-08-14T05:20:28.572Z,12.60
2018-08-14T05:22:56.726Z,12.97
2018-08-14T05:25:24.809Z,12.53
2018-08-14T05:27:52.940Z,11.73
2018-08-14T05:30:21.028Z,11.53
2018-08-14T05:32:49.137Z,10.70
2018-08-14T05:35:17.292Z,11.60
2018-08-14T05:37:45.408Z,11.90
2018-08-14T05:40:13.940Z,11.60
2018-08-14T05:42:42.084Z,12.40
2018-08-14T05:45:12.752Z,10.37
2018-08-14T05:47:40.836Z,10.37
2018-08-14T05:50:11.094Z,10.80
2018-08-14T05:52:39.190Z,10.57
2018-08-14T05:55:07.492Z,10.53
2018-08-14T05:57:35.615Z,11.27
2018-08-14T06:00:04.685Z,13.83
2018-08-14T06:02:32.888Z,12.27
2018-08-14T06:05:01.046Z,12.87
2018-08-14T06:07:29.526Z,11.67
2018-08-14T06:09:57.692Z,12.63
2018-08-14T06:12:25.801Z,12.50
2018-08-14T06:14:53.930Z,11.67
2018-08-14T06:17:22.035Z,11.53
2018-08-14T06:19:50.176Z,11.43
2018-08-14T06:22:18.305Z,11.83
2018-08-14T06:24:46.528Z,10.63
2018-08-14T06:27:14.659Z,12.47
2018-08-14T06:29:42.759Z,13.47
2018-08-14T06:32:10.884Z,11.83
2018-08-14T06:34:38.964Z,12.17
2018-08-14T06:37:07.068Z,13.30
2018-08-14T06:39:35.361Z,12.00
2018-08-14T06:42:03.568Z,11.73
2018-08-14T06:44:31.792Z,12.03
2018-08-14T06:47:00.015Z,10.90
2018-08-14T06:49:28.244Z,10.33
2018-08-14T06:51:56.348Z,10.27
2018-08-14T06:54:24.471Z,10.37
2018-08-14T06:56:52.559Z,10.97
2018-08-14T06:59:20.692Z,9.73
2018-08-14T07:01:48.857Z,10.90
2018-08-14T07:04:16.944Z,9.10
2018-08-14T07:06:45.082Z,9.50
2018-08-14T07:09:13.173Z,8.53
2018-08-14T07:11:41.272Z,9.37
2018-08-14T07:14:09.991Z,8.60
2018-08-14T07:16:39.130Z,10.17
2018-08-14T07:19:08.313Z,8.40
2018-08-14T07:21:36.710Z,9.60
2018-08-14T07:24:05.193Z,8.50
2018-08-14T07:26:33.318Z,10.03
2018-08-14T07:29:01.457Z,8.63
2018-08-14T07:31:29.609Z,8.60
2018-08-14T07:33:57.816Z,7.90
2018-08-14T07:36:26.233Z,8.10
2018-08-14T07:38:54.355Z,7.30
2018-08-14T07:41:24.028Z,8.70
2018-08-14T07:43:52.876Z,7.53
2018-08-14T07:46:21.028Z,7.30
2018-08-14T07:48:49.213Z,7.73
2018-08-14T07:51:17.358Z,7.60
2018-08-14T07:53:45.447Z,7.67
2018-08-14T07:56:13.634Z,6.80
2018-08-14T07:58:41.884Z,6.97
2018-08-14T08:01:10.021Z,8.20
2018-08-14T08:03:38.155Z,6.43
2018-08-14T08:06:06.292Z,6.00
2018-08-14T08:08:34.408Z,5.67
2018-08-14T08:11:02.681Z,6.93
2018-08-14T08:13:30.845Z,5.77
2018-08-14T08:15:59.029Z,4.90
2018-08-14T08:18:27.257Z,5.50
2018-08-14T08:20:55.261Z,4.77
2018-08-14T08:23:23.390Z,5.10
2018-08-14T08:25:51.488Z,6.23
2018-08-14T08:28:19.620Z,5.30
2018-08-14T08:30:47.759Z,5.30
2018-08-14T08:33:15.927Z,5.17
2018-08-14T08:35:44.037Z,4.80
2018-08-14T08:38:12.196Z,6.30
2018-08-14T08:40:40.298Z,5.13
2018-08-14T08:43:08.511Z,4.40
2018-08-14T08:45:36.631Z,5.10
2018-08-14T08:48:13.913Z,4.57
2018-08-14T08:50:42.038Z,5.30
2018-08-14T08:53:10.140Z,4.93
2018-08-14T08:55:38.311Z,5.33
2018-08-14T08:58:06.562Z,4.47
2018-08-14T09:00:34.663Z,6.10
2018-08-14T09:03:02.817Z,5.07
2018-08-14T09:05:31.065Z,6.13
2018-08-14T09:07:59.515Z,5.17
2018-08-14T09:10:27.660Z,4.30
2018-08-14T09:12:55.830Z,4.60
2018-08-14T09:15:23.908Z,5.77
2018-08-14T09:17:52.105Z,5.10
2018-08-14T09:20:20.354Z,4.77
2018-08-14T09:22:48.469Z,5.93
2018-08-14T09:25:16.818Z,3.73
2018-08-14T09:27:46.012Z,3.30
2018-08-14T09:30:15.725Z,3.90
2018-08-14T09:32:43.920Z,3.13
2018-08-14T09:35:13.756Z,4.23
2018-08-14T09:37:42.129Z,3.60
2018-08-14T09:40:12.808Z,3.57
2018-08-14T09:42:41.126Z,3.47
2018-08-14T09:45:09.856Z,3.57
2018-08-14T09:47:38.180Z,2.87
2018-08-14T09:50:12.169Z,3.07
2018-08-14T09:52:40.306Z,3.93
2018-08-14T09:55:08.522Z,4.67
2018-08-14T09:57:36.604Z,3.13
2018-08-14T10:00:06.736Z,3.17
2018-08-14T10:02:40.313Z,3.27
2018-08-14T10:05:14.105Z,4.60
2018-08-14T10:08:16.666Z,3.30
2018-08-14T10:10:44.823Z,4.13
2018-08-14T10:13:14.486Z,2.60
2018-08-14T10:15:42.584Z,2.73
2018-08-14T10:18:13.796Z,3.60
2018-08-14T10:20:41.989Z,2.37
2018-08-14T10:23:10.040Z,2.43
2018-08-14T10:25:38.133Z,2.70
2018-08-14T10:28:06.679Z,2.43
2018-08-14T10:30:34.848Z,4.00
2018-08-14T10:33:03.243Z,2.77
2018-08-14T10:35:31.343Z,3.50
2018-08-14T10:37:59.578Z,3.47
2018-08-14T10:40:27.809Z,2.90
2018-08-14T10:42:55.995Z,2.97
2018-08-14T10:45:24.063Z,4.50
2018-08-14T10:47:52.116Z,3.83
2018-08-14T10:50:21.777Z,3.90
2018-08-14T10:52:50.141Z,3.07
2018-08-14T10:55:18.767Z,3.90
2018-08-14T10:57:47.210Z,4.73
2018-08-14T11:00:18.696Z,2.57
2018-08-14T11:02:47.170Z,2.70
2018-08-14T11:05:16.377Z,3.20
2018-08-14T11:07:45.298Z,3.63
2018-08-14T11:10:15.668Z,5.03
2018-08-14T11:12:44.012Z,3.67
2018-08-14T11:15:12.600Z,2.90
2018-08-14T11:17:40.767Z,3.83
2018-08-14T11:20:11.586Z,3.60
2018-08-14T11:22:39.740Z,3.17
2018-08-14T11:25:07.828Z,3.17
2018-08-14T11:27:35.960Z,3.30
2018-08-14T11:30:05.337Z,3.27
2018-08-14T11:32:33.584Z,3.00
2018-08-14T11:35:01.609Z,3.00
2018-08-14T11:37:29.771Z,3.63
2018-08-14T11:39:57.930Z,2.40
2018-08-14T11:42:26.121Z,2.23
2018-08-14T11:44:54.202Z,2.20
2018-08-14T11:47:22.264Z,2.10
2018-08-14T11:49:50.345Z,2.10
2018-08-14T11:52:18.435Z,2.33
2018-08-14T11:54:46.765Z,2.80
2018-08-14T11:57:14.877Z,3.00
2018-08-14T11:59:43.040Z,3.70
2018-08-14T12:02:11.181Z,3.03
2018-08-14T12:04:40.296Z,3.77
2018-08-14T12:07:08.473Z,3.13
2018-08-14T12:09:36.517Z,2.43
2018-08-14T12:12:04.601Z,2.40
2018-08-14T12:14:33.477Z,2.23
2018-08-14T12:17:01.646Z,2.70
2018-08-14T12:19:29.840Z,2.80
2018-08-14T12:21:57.980Z,2.83
2018-08-14T12:24:26.080Z,2.63
2018-08-14T12:26:54.176Z,2.03
2018-08-14T12:29:22.260Z,2.43
2018-08-14T12:31:50.372Z,3.23
2018-08-14T12:34:18.540Z,4.00
2018-08-14T12:36:46.673Z,2.40
2018-08-14T12:39:14.759Z,2.43
2018-08-14T12:41:42.856Z,2.43
2018-08-14T12:44:11.140Z,2.03
2018-08-14T12:46:39.282Z,2.77
2018-08-14T12:49:07.544Z,1.80
2018-08-14T12:51:35.657Z,2.60
2018-08-14T12:54:03.952Z,1.43
2018-08-14T12:56:32.110Z,1.60
2018-08-14T12:59:00.278Z,1.70
2018-08-14T13:01:28.476Z,1.93
2018-08-14T13:03:56.554Z,1.50
2018-08-14T13:06:24.684Z,1.70
2018-08-14T13:08:52.848Z,1.77
2018-08-14T13:11:20.900Z,1.40
2018-08-14T13:13:49.053Z,2.00
2018-08-14T13:16:17.155Z,1.50
2018-08-14T13:18:45.233Z,1.20
2018-08-14T13:21:13.337Z,2.03
2018-08-14T13:23:41.496Z,1.50
2018-08-14T13:26:09.623Z,2.37
2018-08-14T13:28:37.790Z,1.33
2018-08-14T13:31:05.992Z,1.50
2018-08-14T13:33:34.225Z,1.43
2018-08-14T13:36:02.389Z,1.87
2018-08-14T13:38:30.676Z,1.30
2018-08-14T13:40:58.849Z,1.63
2018-08-14T13:43:27.066Z,2.13
2018-08-14T13:45:55.185Z,1.27
2018-08-14T13:48:23.296Z,1.90
2018-08-14T13:50:51.356Z,2.23
2018-08-14T13:53:19.500Z,1.07
2018-08-14T13:55:47.561Z,2.10
2018-08-14T13:58:15.664Z,1.60
2018-08-14T14:00:43.785Z,1.67
2018-08-14T14:03:11.872Z,2.07
2018-08-14T14:05:40.080Z,1.67
2018-08-14T14:08:08.273Z,1.63
2018-08-14T14:10:36.487Z,1.93
2018-08-14T14:13:04.632Z,2.07
2018-08-14T14:15:32.864Z,1.93
2018-08-14T14:18:01.033Z,3.10
2018-08-14T14:20:30.417Z,1.20
2018-08-14T14:22:58.582Z,2.73
2018-08-14T14:25:26.684Z,1.93
2018-08-14T14:27:54.857Z,1.57
2018-08-14T14:30:22.977Z,1.93
2018-08-14T14:32:51.064Z,1.63
2018-08-14T14:35:19.160Z,2.40
2018-08-14T14:37:47.244Z,1.60
2018-08-14T14:40:19.740Z,3.03
2018-08-14T14:42:48.203Z,2.77
2018-08-14T14:45:16.427Z,2.30
2018-08-14T14:47:45.267Z,3.03
2018-08-14T14:50:13.669Z,2.47
2018-08-14T14:52:42.725Z,1.70
2018-08-14T14:55:13.025Z,1.70
2018-08-14T14:57:41.512Z,2.33
2018-08-14T15:00:15.117Z,1.90
2018-08-14T15:02:43.720Z,1.70
2018-08-14T15:05:12.089Z,3.13
2018-08-14T15:07:40.295Z,2.33
2018-08-14T15:10:08.954Z,2.20
2018-08-14T15:12:37.104Z,1.60
2018-08-14T15:15:05.607Z,2.37
2018-08-14T15:17:33.731Z,2.03
2018-08-14T15:20:01.973Z,1.77
2018-08-14T15:22:30.109Z,1.97
2018-08-14T15:24:58.285Z,2.00
2018-08-14T15:27:26.365Z,1.73
2018-08-14T15:29:55.880Z,2.73
2018-08-14T15:32:24.033Z,1.97
2018-08-14T15:34:52.194Z,1.87
2018-08-14T15:37:20.301Z,1.43
2018-08-14T15:39:48.430Z,2.17
2018-08-14T15:42:16.544Z,3.37
2018-08-14T15:44:44.664Z,2.13
2018-08-14T15:47:12.769Z,1.60
2018-08-14T15:49:40.984Z,1.43
2018-08-14T15:52:09.047Z,2.47
2018-08-14T15:54:37.128Z,1.90
2018-08-14T15:57:05.510Z,1.70
2018-08-14T15:59:33.791Z,1.70
2018-08-14T16:02:02.151Z,1.47
2018-08-14T16:04:30.324Z,1.73
2018-08-14T16:06:58.527Z,1.40
2018-08-14T16:09:26.746Z,1.60
2018-08-14T16:11:54.816Z,2.20
2018-08-14T16:14:22.927Z,2.40
2018-08-14T16:16:51.112Z,1.10
2018-08-14T16:19:19.261Z,1.50
2018-08-14T16:21:47.384Z,2.10
2018-08-14T16:24:16.543Z,1.27
2018-08-14T16:26:44.691Z,1.30
2018-08-14T16:29:12.792Z,1.57
2018-08-14T16:31:40.879Z,1.50
2018-08-14T16:34:09.082Z,2.53
2018-08-14T16:36:37.536Z,1.53
2018-08-14T16:39:08.328Z,1.50
2018-08-14T16:41:36.550Z,1.60
2018-08-14T16:44:04.690Z,1.60
2018-08-14T16:46:32.960Z,2.80
2018-08-14T16:49:01.128Z,2.50
2018-08-14T16:51:29.316Z,1.93
2018-08-14T16:53:57.450Z,1.87
2018-08-14T16:56:25.537Z,2.03
2018-08-14T16:58:53.708Z,1.27
2018-08-14T17:01:21.857Z,4.30
2018-08-14T17:03:49.954Z,2.33
2018-08-14T17:06:20.726Z,1.70
2018-08-14T17:08:49.055Z,1.77
2018-08-14T17:11:17.147Z,2.13
2018-08-14T17:13:45.298Z,1.50
2018-08-14T17:16:13.400Z,2.00
2018-08-14T17:18:41.579Z,1.70
2018-08-14T17:21:08.721Z,3.30
2018-08-14T17:23:36.850Z,3.00
2018-08-14T17:26:05.113Z,3.10
2018-08-14T17:28:33.383Z,2.50
2018-08-14T17:31:01.440Z,2.37
2018-08-14T17:33:29.755Z,2.93
2018-08-14T17:35:57.896Z,1.80
2018-08-14T17:38:26.056Z,3.10
2018-08-14T17:40:54.135Z,2.43
2018-08-14T17:43:22.282Z,1.97
2018-08-14T17:45:50.415Z,1.90
2018-08-14T17:48:18.519Z,1.53
2018-08-14T17:50:46.688Z,2.63
2018-08-14T17:53:14.740Z,2.13
2018-08-14T17:55:42.864Z,2.47
2018-08-14T17:58:10.987Z,2.50
2018-08-14T18:00:39.132Z,3.03
2018-08-14T18:03:08.896Z,2.33
2018-08-14T18:05:37.008Z,3.97
2018-08-14T18:08:06.397Z,10.10
2018-08-14T18:10:34.513Z,10.03
2018-08-14T18:13:02.620Z,7.30
2018-08-14T18:15:30.768Z,5.50
2018-08-14T18:17:58.900Z,6.00
2018-08-14T18:20:27.145Z,6.80
2018-08-14T18:22:55.228Z,5.83
2018-08-14T18:25:24.252Z,4.97
2018-08-14T18:27:52.778Z,6.67
2018-08-14T18:30:21.676Z,5.33
2018-08-14T18:32:50.159Z,5.70
2018-08-14T18:35:18.661Z,4.70
2018-08-14T18:37:47.144Z,5.23
2018-08-14T18:40:17.379Z,5.03
2018-08-14T18:42:46.279Z,4.13
2018-08-14T18:45:16.207Z,4.07
2018-08-14T18:47:44.412Z,4.43
2018-08-14T18:50:13.517Z,5.77
2018-08-14T18:52:41.628Z,3.97
2018-08-14T18:55:12.248Z,3.07
2018-08-14T18:57:41.049Z,3.53
2018-08-14T19:00:16.403Z,3.63
2018-08-14T19:02:44.586Z,3.77
2018-08-14T19:05:12.889Z,4.17
2018-08-14T19:07:41.171Z,3.47
2018-08-14T19:10:10.202Z,5.17
2018-08-14T19:12:38.343Z,4.37
2018-08-14T19:15:12.460Z,4.63
2018-08-14T19:17:40.840Z,2.73
2018-08-14T19:20:09.260Z,4.07
2018-08-14T19:22:37.405Z,3.73
2018-08-14T19:25:05.610Z,3.83
2018-08-14T19:27:33.782Z,5.80
2018-08-14T19:30:01.925Z,3.90
2018-08-14T19:32:30.065Z,3.77
2018-08-14T19:34:58.175Z,3.40
2018-08-14T19:37:26.383Z,3.90
2018-08-14T19:39:54.472Z,4.50
2018-08-14T19:42:22.599Z,4.60
2018-08-14T19:44:50.731Z,4.67
2018-08-14T19:47:18.832Z,4.30
2018-08-14T19:49:47.156Z,5.37
2018-08-14T19:52:15.280Z,4.33
2018-08-14T19:54:43.420Z,5.63
2018-08-14T19:57:11.532Z,5.57
2018-08-14T19:59:39.631Z,4.20
2018-08-14T20:02:08.474Z,7.07
2018-08-14T20:04:36.584Z,5.53
2018-08-14T20:07:04.741Z,4.33
2018-08-14T20:09:32.893Z,4.87
2018-08-14T20:12:01.069Z,4.87
2018-08-14T20:14:29.173Z,4.87
2018-08-14T20:16:57.267Z,4.07
2018-08-14T20:19:25.436Z,4.83
2018-08-14T20:21:53.592Z,6.17
2018-08-14T20:24:21.733Z,4.73
2018-08-14T20:26:49.978Z,5.43
2018-08-14T20:29:18.121Z,6.47
2018-08-14T20:31:46.269Z,4.57
2018-08-14T20:34:14.386Z,4.37
2018-08-14T20:36:42.480Z,3.80
2018-08-14T20:39:10.656Z,5.87
2018-08-14T20:41:38.756Z,7.20
2018-08-14T20:44:06.932Z,5.13
2018-08-14T20:46:34.972Z,3.43
2018-08-14T20:49:03.112Z,6.73
2018-08-14T20:51:31.204Z,5.50
2018-08-14T20:53:59.354Z,7.07
2018-08-14T20:56:27.447Z,8.13
2018-08-14T20:58:55.831Z,6.97
2018-08-14T21:01:23.948Z,4.17
2018-08-14T21:03:52.436Z,3.63
2018-08-14T21:06:20.572Z,4.50
2018-08-14T21:08:48.713Z,4.83
2018-08-14T21:11:16.782Z,5.87
2018-08-14T21:13:44.880Z,6.67
2018-08-14T21:16:18.402Z,6.33
2018-08-14T21:18:46.583Z,4.30
2018-08-14T21:21:14.689Z,4.53
2018-08-14T21:23:42.794Z,3.73
2018-08-14T21:26:10.942Z,5.33
2018-08-14T21:28:39.085Z,2.77
2018-08-14T21:31:07.193Z,4.53
2018-08-14T21:33:35.280Z,5.23
2018-08-14T21:36:03.405Z,6.70
2018-08-14T21:38:31.612Z,3.70
2018-08-14T21:41:00.776Z,3.17
2018-08-14T21:43:28.892Z,3.03
2018-08-14T21:45:57.016Z,4.73
2018-08-14T21:48:25.148Z,4.80
2018-08-14T21:50:53.283Z,4.60
2018-08-14T21:53:21.396Z,3.90
2018-08-14T21:55:49.464Z,4.33
2018-08-14T21:58:17.567Z,4.40
2018-08-14T22:01:16.975Z,7.17
2018-08-14T22:03:46.084Z,3.60
2018-08-14T22:06:14.900Z,6.13
2018-08-14T22:08:43.161Z,5.80
2018-08-14T22:11:11.552Z,2.67
2018-08-14T22:13:39.833Z,4.10
2018-08-14T22:16:08.392Z,4.30
2018-08-14T22:18:36.497Z,5.00
2018-08-14T22:21:04.617Z,5.17
2018-08-14T22:23:32.777Z,3.70
2018-08-14T22:26:00.896Z,3.07
2018-08-14T22:28:29.080Z,3.27
2018-08-14T22:30:57.244Z,4.43
2018-08-14T22:33:25.371Z,3.80
2018-08-14T22:35:53.603Z,4.43
2018-08-14T22:38:21.724Z,3.03
2018-08-14T22:40:49.809Z,4.27
2018-08-14T22:43:18.081Z,5.87
2018-08-14T22:45:46.392Z,3.40
2018-08-14T22:48:14.531Z,4.37
2018-08-14T22:50:42.749Z,3.87
2018-08-14T22:53:10.819Z,3.00
2018-08-14T22:55:38.943Z,2.73
2018-08-14T22:58:07.046Z,3.13
2018-08-14T23:00:35.149Z,4.03
2018-08-14T23:03:03.269Z,4.33
2018-08-14T23:05:31.358Z,3.30
2018-08-14T23:07:59.542Z,4.83
2018-08-14T23:10:27.641Z,2.13
2018-08-14T23:12:55.761Z,3.63
2018-08-14T23:15:23.868Z,3.57
2018-08-14T23:17:51.960Z,4.93
2018-08-14T23:20:20.117Z,3.87
2018-08-14T23:22:48.203Z,3.80
2018-08-14T23:25:16.300Z,4.53
2018-08-14T23:27:44.427Z,2.27
2018-08-14T23:30:14.865Z,4.17
2018-08-14T23:32:43.257Z,5.53
2018-08-14T23:35:11.390Z,3.57
2018-08-14T23:37:39.552Z,5.03
2018-08-14T23:40:09.418Z,2.43
2018-08-14T23:42:37.664Z,3.93
2018-08-14T23:45:06.671Z,5.13
2018-08-14T23:47:34.784Z,4.03
2018-08-14T23:50:02.908Z,3.03
2018-08-14T23:52:31.177Z,4.47
2018-08-14T23:54:59.366Z,4.13
2018-08-14T23:57:27.469Z,4.30
2018-08-14T23:59:55.613Z,3.50
